sensor_id;sensor_type;location;lat;lon;timestamp;P1;durP1;ratioP1;P2;durP2;ratioP2
72125;SDS011;59999;51.676;22.650;2023-12-20T00:01:35;17.00;;;5.38;;
72125;SDS011;59999;51.676;22.650;2023-12-20T00:04:02;14.53;;;5.50;;
72125;SDS011;59999;51.676;22.650;2023-12-20T00:06:29;14.50;;;5.15;;
72125;SDS011;59999;51.676;22.650;2023-12-20T00:08:55;14.43;;;5.35;;
72125;SDS011;59999;51.676;22.650;2023-12-20T00:11:21;13.35;;;5.05;;
72125;SDS011;59999;51.676;22.650;2023-12-20T00:13:46;14.05;;;5.05;;
72125;SDS011;59999;51.676;22.650;2023-12-20T00:16:12;14.38;;;5.43;;
72125;SDS011;59999;51.676;22.650;2023-12-20T00:18:38;14.83;;;5.57;;
72125;SDS011;59999;51.676;22.650;2023-12-20T00:21:04;16.30;;;5.45;;
72125;SDS011;59999;51.676;22.650;2023-12-20T00:23:29;14.27;;;5.33;;
72125;SDS011;59999;51.676;22.650;2023-12-20T00:25:55;15.48;;;5.50;;
72125;SDS011;59999;51.676;22.650;2023-12-20T00:28:21;17.35;;;6.03;;
72125;SDS011;59999;51.676;22.650;2023-12-20T00:30:47;16.77;;;5.85;;
72125;SDS011;59999;51.676;22.650;2023-12-20T00:33:13;16.38;;;6.25;;
72125;SDS011;59999;51.676;22.650;2023-12-20T00:35:39;17.00;;;6.37;;
72125;SDS011;59999;51.676;22.650;2023-12-20T00:38:04;16.33;;;6.38;;
72125;SDS011;59999;51.676;22.650;2023-12-20T00:40:32;16.30;;;6.22;;
72125;SDS011;59999;51.676;22.650;2023-12-20T00:42:58;16.43;;;6.13;;
72125;SDS011;59999;51.676;22.650;2023-12-20T00:45:24;21.50;;;9.02;;
72125;SDS011;59999;51.676;22.650;2023-12-20T00:47:50;18.73;;;8.38;;
72125;SDS011;59999;51.676;22.650;2023-12-20T00:50:16;23.45;;;9.25;;
72125;SDS011;59999;51.676;22.650;2023-12-20T00:52:41;24.10;;;8.75;;
72125;SDS011;59999;51.676;22.650;2023-12-20T00:55:07;21.13;;;8.73;;
72125;SDS011;59999;51.676;22.650;2023-12-20T00:57:33;23.08;;;9.63;;
72125;SDS011;59999;51.676;22.650;2023-12-20T00:59:59;20.17;;;7.70;;
72125;SDS011;59999;51.676;22.650;2023-12-20T01:02:25;19.88;;;7.55;;
72125;SDS011;59999;51.676;22.650;2023-12-20T01:04:51;22.25;;;8.40;;
72125;SDS011;59999;51.676;22.650;2023-12-20T01:07:16;17.73;;;7.73;;
72125;SDS011;59999;51.676;22.650;2023-12-20T01:09:42;21.77;;;9.10;;
72125;SDS011;59999;51.676;22.650;2023-12-20T01:12:08;13.77;;;5.75;;
72125;SDS011;59999;51.676;22.650;2023-12-20T01:14:34;17.60;;;7.60;;
72125;SDS011;59999;51.676;22.650;2023-12-20T01:16:59;17.00;;;6.25;;
72125;SDS011;59999;51.676;22.650;2023-12-20T01:19:27;13.38;;;5.82;;
72125;SDS011;59999;51.676;22.650;2023-12-20T01:21:53;16.50;;;7.23;;
72125;SDS011;59999;51.676;22.650;2023-12-20T01:24:19;18.08;;;6.70;;
72125;SDS011;59999;51.676;22.650;2023-12-20T01:26:45;15.47;;;6.33;;
72125;SDS011;59999;51.676;22.650;2023-12-20T01:29:11;18.65;;;6.03;;
72125;SDS011;59999;51.676;22.650;2023-12-20T01:31:37;15.50;;;6.10;;
72125;SDS011;59999;51.676;22.650;2023-12-20T01:34:03;17.02;;;5.85;;
72125;SDS011;59999;51.676;22.650;2023-12-20T01:36:29;15.33;;;5.97;;
72125;SDS011;59999;51.676;22.650;2023-12-20T01:38:54;15.57;;;5.93;;
72125;SDS011;59999;51.676;22.650;2023-12-20T01:41:20;17.27;;;6.10;;
72125;SDS011;59999;51.676;22.650;2023-12-20T01:43:46;14.65;;;5.53;;
72125;SDS011;59999;51.676;22.650;2023-12-20T01:46:11;15.03;;;5.97;;
72125;SDS011;59999;51.676;22.650;2023-12-20T01:48:38;16.90;;;6.72;;
72125;SDS011;59999;51.676;22.650;2023-12-20T01:51:04;16.20;;;6.35;;
72125;SDS011;59999;51.676;22.650;2023-12-20T01:53:30;19.88;;;7.20;;
72125;SDS011;59999;51.676;22.650;2023-12-20T01:55:57;19.95;;;8.43;;
72125;SDS011;59999;51.676;22.650;2023-12-20T01:58:24;20.83;;;8.95;;
72125;SDS011;59999;51.676;22.650;2023-12-20T02:00:51;20.80;;;8.13;;
72125;SDS011;59999;51.676;22.650;2023-12-20T02:03:17;26.67;;;10.98;;
72125;SDS011;59999;51.676;22.650;2023-12-20T02:05:43;26.07;;;10.80;;
72125;SDS011;59999;51.676;22.650;2023-12-20T02:08:11;26.25;;;9.95;;
72125;SDS011;59999;51.676;22.650;2023-12-20T02:10:36;31.15;;;11.65;;
72125;SDS011;59999;51.676;22.650;2023-12-20T02:13:03;23.17;;;9.87;;
72125;SDS011;59999;51.676;22.650;2023-12-20T02:15:29;28.50;;;11.23;;
72125;SDS011;59999;51.676;22.650;2023-12-20T02:17:55;31.92;;;13.18;;
72125;SDS011;59999;51.676;22.650;2023-12-20T02:20:21;23.35;;;9.23;;
72125;SDS011;59999;51.676;22.650;2023-12-20T02:22:47;26.73;;;10.40;;
72125;SDS011;59999;51.676;22.650;2023-12-20T02:25:13;17.47;;;6.73;;
72125;SDS011;59999;51.676;22.650;2023-12-20T02:27:39;21.52;;;8.68;;
72125;SDS011;59999;51.676;22.650;2023-12-20T02:30:05;21.02;;;9.00;;
72125;SDS011;59999;51.676;22.650;2023-12-20T02:32:32;20.27;;;8.17;;
72125;SDS011;59999;51.676;22.650;2023-12-20T02:34:57;17.38;;;7.60;;
72125;SDS011;59999;51.676;22.650;2023-12-20T02:37:23;18.05;;;6.82;;
72125;SDS011;59999;51.676;22.650;2023-12-20T02:39:49;18.93;;;7.67;;
72125;SDS011;59999;51.676;22.650;2023-12-20T02:42:15;20.38;;;7.55;;
72125;SDS011;59999;51.676;22.650;2023-12-20T02:44:41;20.85;;;8.20;;
72125;SDS011;59999;51.676;22.650;2023-12-20T02:47:07;21.40;;;7.60;;
72125;SDS011;59999;51.676;22.650;2023-12-20T02:49:32;22.23;;;8.32;;
72125;SDS011;59999;51.676;22.650;2023-12-20T02:51:58;20.55;;;8.65;;
72125;SDS011;59999;51.676;22.650;2023-12-20T02:54:24;20.48;;;6.60;;
72125;SDS011;59999;51.676;22.650;2023-12-20T02:56:50;14.27;;;6.53;;
72125;SDS011;59999;51.676;22.650;2023-12-20T02:59:15;29.75;;;10.38;;
72125;SDS011;59999;51.676;22.650;2023-12-20T03:01:42;28.27;;;10.37;;
72125;SDS011;59999;51.676;22.650;2023-12-20T03:04:09;27.95;;;10.27;;
72125;SDS011;59999;51.676;22.650;2023-12-20T03:06:35;23.38;;;9.15;;
72125;SDS011;59999;51.676;22.650;2023-12-20T03:09:00;20.80;;;8.70;;
72125;SDS011;59999;51.676;22.650;2023-12-20T03:11:26;22.42;;;8.73;;
72125;SDS011;59999;51.676;22.650;2023-12-20T03:13:53;25.00;;;9.15;;
72125;SDS011;59999;51.676;22.650;2023-12-20T03:16:18;20.70;;;7.43;;
72125;SDS011;59999;51.676;22.650;2023-12-20T03:18:44;15.52;;;6.40;;
72125;SDS011;59999;51.676;22.650;2023-12-20T03:21:10;24.93;;;9.73;;
72125;SDS011;59999;51.676;22.650;2023-12-20T03:23:36;25.65;;;9.50;;
72125;SDS011;59999;51.676;22.650;2023-12-20T03:26:02;21.33;;;8.70;;
72125;SDS011;59999;51.676;22.650;2023-12-20T03:28:27;16.77;;;7.82;;
72125;SDS011;59999;51.676;22.650;2023-12-20T03:30:54;23.05;;;8.57;;
72125;SDS011;59999;51.676;22.650;2023-12-20T03:33:19;21.30;;;8.60;;
72125;SDS011;59999;51.676;22.650;2023-12-20T03:35:45;21.85;;;8.45;;
72125;SDS011;59999;51.676;22.650;2023-12-20T03:38:11;23.33;;;8.73;;
72125;SDS011;59999;51.676;22.650;2023-12-20T03:40:37;19.63;;;8.68;;
72125;SDS011;59999;51.676;22.650;2023-12-20T03:43:02;20.63;;;7.72;;
72125;SDS011;59999;51.676;22.650;2023-12-20T03:45:28;21.83;;;8.00;;
72125;SDS011;59999;51.676;22.650;2023-12-20T03:47:54;21.17;;;8.38;;
72125;SDS011;59999;51.676;22.650;2023-12-20T03:50:25;17.92;;;7.18;;
72125;SDS011;59999;51.676;22.650;2023-12-20T03:52:51;18.37;;;8.03;;
72125;SDS011;59999;51.676;22.650;2023-12-20T03:55:17;19.55;;;6.65;;
72125;SDS011;59999;51.676;22.650;2023-12-20T03:57:44;18.30;;;7.78;;
72125;SDS011;59999;51.676;22.650;2023-12-20T04:00:10;19.38;;;7.90;;
72125;SDS011;59999;51.676;22.650;2023-12-20T04:02:39;19.50;;;7.28;;
72125;SDS011;59999;51.676;22.650;2023-12-20T04:05:07;17.67;;;7.00;;
72125;SDS011;59999;51.676;22.650;2023-12-20T04:07:34;15.98;;;6.50;;
72125;SDS011;59999;51.676;22.650;2023-12-20T04:10:01;18.75;;;7.10;;
72125;SDS011;59999;51.676;22.650;2023-12-20T04:12:28;18.20;;;6.72;;
72125;SDS011;59999;51.676;22.650;2023-12-20T04:14:53;16.00;;;6.72;;
72125;SDS011;59999;51.676;22.650;2023-12-20T04:17:19;18.93;;;6.60;;
72125;SDS011;59999;51.676;22.650;2023-12-20T04:19:45;16.27;;;6.65;;
72125;SDS011;59999;51.676;22.650;2023-12-20T04:22:11;18.93;;;7.90;;
72125;SDS011;59999;51.676;22.650;2023-12-20T04:24:37;16.55;;;6.20;;
72125;SDS011;59999;51.676;22.650;2023-12-20T04:27:03;16.43;;;6.57;;
72125;SDS011;59999;51.676;22.650;2023-12-20T04:29:29;19.65;;;7.85;;
72125;SDS011;59999;51.676;22.650;2023-12-20T04:31:54;15.93;;;6.38;;
72125;SDS011;59999;51.676;22.650;2023-12-20T04:34:21;17.75;;;7.22;;
72125;SDS011;59999;51.676;22.650;2023-12-20T04:36:47;16.67;;;6.28;;
72125;SDS011;59999;51.676;22.650;2023-12-20T04:39:13;17.52;;;6.93;;
72125;SDS011;59999;51.676;22.650;2023-12-20T04:41:40;16.33;;;6.13;;
72125;SDS011;59999;51.676;22.650;2023-12-20T04:44:06;18.93;;;7.17;;
72125;SDS011;59999;51.676;22.650;2023-12-20T04:46:31;15.10;;;6.07;;
72125;SDS011;59999;51.676;22.650;2023-12-20T04:48:57;15.48;;;6.65;;
72125;SDS011;59999;51.676;22.650;2023-12-20T04:51:23;16.10;;;6.43;;
72125;SDS011;59999;51.676;22.650;2023-12-20T04:53:49;16.80;;;6.93;;
72125;SDS011;59999;51.676;22.650;2023-12-20T04:56:15;17.10;;;6.77;;
72125;SDS011;59999;51.676;22.650;2023-12-20T04:58:42;17.70;;;6.70;;
72125;SDS011;59999;51.676;22.650;2023-12-20T05:01:08;14.70;;;5.25;;
72125;SDS011;59999;51.676;22.650;2023-12-20T05:03:34;16.38;;;6.65;;
72125;SDS011;59999;51.676;22.650;2023-12-20T05:06:00;14.77;;;6.97;;
72125;SDS011;59999;51.676;22.650;2023-12-20T05:08:25;16.05;;;7.05;;
72125;SDS011;59999;51.676;22.650;2023-12-20T05:10:52;17.70;;;7.73;;
72125;SDS011;59999;51.676;22.650;2023-12-20T05:13:20;18.27;;;7.20;;
72125;SDS011;59999;51.676;22.650;2023-12-20T05:15:45;18.17;;;6.72;;
72125;SDS011;59999;51.676;22.650;2023-12-20T05:18:12;17.05;;;7.90;;
72125;SDS011;59999;51.676;22.650;2023-12-20T05:20:38;16.25;;;6.97;;
72125;SDS011;59999;51.676;22.650;2023-12-20T05:23:04;17.05;;;7.10;;
72125;SDS011;59999;51.676;22.650;2023-12-20T05:25:30;17.58;;;6.88;;
72125;SDS011;59999;51.676;22.650;2023-12-20T05:27:56;22.60;;;8.00;;
72125;SDS011;59999;51.676;22.650;2023-12-20T05:30:22;16.80;;;7.35;;
72125;SDS011;59999;51.676;22.650;2023-12-20T05:32:48;16.23;;;6.53;;
72125;SDS011;59999;51.676;22.650;2023-12-20T05:35:13;18.50;;;7.05;;
72125;SDS011;59999;51.676;22.650;2023-12-20T05:37:41;15.23;;;6.47;;
72125;SDS011;59999;51.676;22.650;2023-12-20T05:40:07;16.52;;;6.55;;
72125;SDS011;59999;51.676;22.650;2023-12-20T05:42:36;15.18;;;6.30;;
72125;SDS011;59999;51.676;22.650;2023-12-20T05:45:03;17.20;;;7.25;;
72125;SDS011;59999;51.676;22.650;2023-12-20T05:47:30;17.83;;;7.38;;
72125;SDS011;59999;51.676;22.650;2023-12-20T05:49:55;16.57;;;6.97;;
72125;SDS011;59999;51.676;22.650;2023-12-20T05:52:21;15.93;;;6.57;;
72125;SDS011;59999;51.676;22.650;2023-12-20T05:54:47;19.08;;;7.10;;
72125;SDS011;59999;51.676;22.650;2023-12-20T05:57:13;14.23;;;4.73;;
72125;SDS011;59999;51.676;22.650;2023-12-20T05:59:39;16.08;;;6.72;;
72125;SDS011;59999;51.676;22.650;2023-12-20T06:02:05;16.30;;;6.10;;
72125;SDS011;59999;51.676;22.650;2023-12-20T06:04:31;14.43;;;5.70;;
72125;SDS011;59999;51.676;22.650;2023-12-20T06:06:57;18.67;;;6.65;;
72125;SDS011;59999;51.676;22.650;2023-12-20T06:09:22;19.33;;;7.22;;
72125;SDS011;59999;51.676;22.650;2023-12-20T06:11:49;17.25;;;6.88;;
72125;SDS011;59999;51.676;22.650;2023-12-20T06:14:15;17.08;;;7.28;;
72125;SDS011;59999;51.676;22.650;2023-12-20T06:16:41;16.10;;;6.72;;
72125;SDS011;59999;51.676;22.650;2023-12-20T06:19:06;15.23;;;6.77;;
72125;SDS011;59999;51.676;22.650;2023-12-20T06:21:32;19.25;;;7.25;;
72125;SDS011;59999;51.676;22.650;2023-12-20T06:23:58;16.15;;;6.28;;
72125;SDS011;59999;51.676;22.650;2023-12-20T06:26:25;15.77;;;6.70;;
72125;SDS011;59999;51.676;22.650;2023-12-20T06:28:51;15.27;;;6.63;;
72125;SDS011;59999;51.676;22.650;2023-12-20T06:31:17;16.35;;;6.75;;
72125;SDS011;59999;51.676;22.650;2023-12-20T06:33:43;16.40;;;6.90;;
72125;SDS011;59999;51.676;22.650;2023-12-20T06:36:12;15.77;;;6.85;;
72125;SDS011;59999;51.676;22.650;2023-12-20T06:38:38;20.92;;;7.68;;
72125;SDS011;59999;51.676;22.650;2023-12-20T06:41:05;22.27;;;8.00;;
72125;SDS011;59999;51.676;22.650;2023-12-20T06:43:31;49.40;;;21.05;;
72125;SDS011;59999;51.676;22.650;2023-12-20T06:46:00;56.22;;;27.67;;
72125;SDS011;59999;51.676;22.650;2023-12-20T06:48:26;66.47;;;29.23;;
72125;SDS011;59999;51.676;22.650;2023-12-20T06:50:51;37.75;;;15.63;;
72125;SDS011;59999;51.676;22.650;2023-12-20T06:53:17;32.90;;;13.50;;
72125;SDS011;59999;51.676;22.650;2023-12-20T06:55:43;29.98;;;13.40;;
72125;SDS011;59999;51.676;22.650;2023-12-20T06:58:09;32.80;;;16.87;;
72125;SDS011;59999;51.676;22.650;2023-12-20T07:00:35;27.83;;;12.90;;
72125;SDS011;59999;51.676;22.650;2023-12-20T07:03:01;24.92;;;11.85;;
72125;SDS011;59999;51.676;22.650;2023-12-20T07:05:27;32.93;;;14.00;;
72125;SDS011;59999;51.676;22.650;2023-12-20T07:07:52;31.67;;;12.32;;
72125;SDS011;59999;51.676;22.650;2023-12-20T07:10:19;23.65;;;9.57;;
72125;SDS011;59999;51.676;22.650;2023-12-20T07:12:45;20.67;;;7.77;;
72125;SDS011;59999;51.676;22.650;2023-12-20T07:15:11;24.45;;;10.23;;
72125;SDS011;59999;51.676;22.650;2023-12-20T07:17:37;24.73;;;11.63;;
72125;SDS011;59999;51.676;22.650;2023-12-20T07:20:03;22.40;;;8.90;;
72125;SDS011;59999;51.676;22.650;2023-12-20T07:22:30;19.70;;;8.60;;
72125;SDS011;59999;51.676;22.650;2023-12-20T07:24:59;17.25;;;7.25;;
72125;SDS011;59999;51.676;22.650;2023-12-20T07:27:25;11.70;;;4.32;;
72125;SDS011;59999;51.676;22.650;2023-12-20T07:29:52;13.88;;;5.30;;
72125;SDS011;59999;51.676;22.650;2023-12-20T07:32:18;14.93;;;6.18;;
72125;SDS011;59999;51.676;22.650;2023-12-20T07:34:44;13.97;;;4.50;;
72125;SDS011;59999;51.676;22.650;2023-12-20T07:37:09;12.40;;;4.78;;
72125;SDS011;59999;51.676;22.650;2023-12-20T07:39:39;13.75;;;5.53;;
72125;SDS011;59999;51.676;22.650;2023-12-20T07:42:05;11.97;;;4.90;;
72125;SDS011;59999;51.676;22.650;2023-12-20T07:44:32;12.07;;;4.85;;
72125;SDS011;59999;51.676;22.650;2023-12-20T07:46:57;10.60;;;4.03;;
72125;SDS011;59999;51.676;22.650;2023-12-20T07:49:23;13.53;;;4.33;;
72125;SDS011;59999;51.676;22.650;2023-12-20T07:51:49;12.05;;;4.47;;
72125;SDS011;59999;51.676;22.650;2023-12-20T07:54:15;12.98;;;5.55;;
72125;SDS011;59999;51.676;22.650;2023-12-20T07:56:41;12.83;;;5.23;;
72125;SDS011;59999;51.676;22.650;2023-12-20T07:59:07;13.57;;;5.32;;
72125;SDS011;59999;51.676;22.650;2023-12-20T08:01:33;12.63;;;4.75;;
72125;SDS011;59999;51.676;22.650;2023-12-20T08:03:58;10.30;;;3.63;;
72125;SDS011;59999;51.676;22.650;2023-12-20T08:06:24;12.93;;;5.22;;
72125;SDS011;59999;51.676;22.650;2023-12-20T08:08:50;9.20;;;3.90;;
72125;SDS011;59999;51.676;22.650;2023-12-20T08:11:15;13.73;;;5.15;;
72125;SDS011;59999;51.676;22.650;2023-12-20T08:13:41;10.13;;;4.07;;
72125;SDS011;59999;51.676;22.650;2023-12-20T08:16:07;10.40;;;3.77;;
72125;SDS011;59999;51.676;22.650;2023-12-20T08:18:33;10.13;;;3.50;;
72125;SDS011;59999;51.676;22.650;2023-12-20T08:20:59;11.37;;;5.17;;
72125;SDS011;59999;51.676;22.650;2023-12-20T08:23:25;49.75;;;22.23;;
72125;SDS011;59999;51.676;22.650;2023-12-20T08:25:51;24.73;;;10.63;;
72125;SDS011;59999;51.676;22.650;2023-12-20T08:28:17;20.30;;;8.05;;
72125;SDS011;59999;51.676;22.650;2023-12-20T08:30:43;14.82;;;5.50;;
72125;SDS011;59999;51.676;22.650;2023-12-20T08:33:09;19.80;;;7.97;;
72125;SDS011;59999;51.676;22.650;2023-12-20T08:35:38;27.65;;;10.18;;
72125;SDS011;59999;51.676;22.650;2023-12-20T08:38:05;17.00;;;7.05;;
72125;SDS011;59999;51.676;22.650;2023-12-20T08:40:31;21.80;;;7.97;;
72125;SDS011;59999;51.676;22.650;2023-12-20T08:42:57;31.27;;;12.07;;
72125;SDS011;59999;51.676;22.650;2023-12-20T08:45:22;28.10;;;11.18;;
72125;SDS011;59999;51.676;22.650;2023-12-20T08:47:48;17.40;;;6.70;;
72125;SDS011;59999;51.676;22.650;2023-12-20T08:50:14;17.77;;;6.65;;
72125;SDS011;59999;51.676;22.650;2023-12-20T08:52:40;27.47;;;10.70;;
72125;SDS011;59999;51.676;22.650;2023-12-20T08:55:07;57.38;;;19.17;;
72125;SDS011;59999;51.676;22.650;2023-12-20T08:57:33;41.03;;;14.63;;
72125;SDS011;59999;51.676;22.650;2023-12-20T08:59:59;41.58;;;19.50;;
72125;SDS011;59999;51.676;22.650;2023-12-20T09:02:25;30.92;;;13.93;;
72125;SDS011;59999;51.676;22.650;2023-12-20T09:04:50;16.75;;;7.53;;
72125;SDS011;59999;51.676;22.650;2023-12-20T09:07:23;27.27;;;14.02;;
72125;SDS011;59999;51.676;22.650;2023-12-20T09:09:50;16.08;;;7.07;;
72125;SDS011;59999;51.676;22.650;2023-12-20T09:12:19;14.48;;;5.25;;
72125;SDS011;59999;51.676;22.650;2023-12-20T09:14:46;15.30;;;4.28;;
72125;SDS011;59999;51.676;22.650;2023-12-20T09:17:13;12.93;;;5.00;;
72125;SDS011;59999;51.676;22.650;2023-12-20T09:19:38;12.00;;;3.88;;
72125;SDS011;59999;51.676;22.650;2023-12-20T09:22:05;11.93;;;4.57;;
72125;SDS011;59999;51.676;22.650;2023-12-20T09:24:31;21.85;;;6.90;;
72125;SDS011;59999;51.676;22.650;2023-12-20T09:26:57;10.93;;;4.22;;
72125;SDS011;59999;51.676;22.650;2023-12-20T09:29:23;16.55;;;6.95;;
72125;SDS011;59999;51.676;22.650;2023-12-20T09:31:50;14.07;;;5.53;;
72125;SDS011;59999;51.676;22.650;2023-12-20T09:34:16;13.70;;;5.20;;
72125;SDS011;59999;51.676;22.650;2023-12-20T09:36:42;17.63;;;5.88;;
72125;SDS011;59999;51.676;22.650;2023-12-20T09:39:14;13.15;;;4.45;;
72125;SDS011;59999;51.676;22.650;2023-12-20T09:41:42;12.90;;;5.10;;
72125;SDS011;59999;51.676;22.650;2023-12-20T09:44:13;22.23;;;7.30;;
72125;SDS011;59999;51.676;22.650;2023-12-20T09:46:42;33.92;;;9.43;;
72125;SDS011;59999;51.676;22.650;2023-12-20T09:49:09;42.15;;;10.52;;
72125;SDS011;59999;51.676;22.650;2023-12-20T09:51:36;33.78;;;7.70;;
72125;SDS011;59999;51.676;22.650;2023-12-20T09:54:04;36.80;;;7.60;;
72125;SDS011;59999;51.676;22.650;2023-12-20T09:56:30;40.30;;;8.55;;
72125;SDS011;59999;51.676;22.650;2023-12-20T09:58:56;27.40;;;6.87;;
72125;SDS011;59999;51.676;22.650;2023-12-20T10:01:23;21.10;;;6.10;;
72125;SDS011;59999;51.676;22.650;2023-12-20T10:03:50;27.52;;;7.22;;
72125;SDS011;59999;51.676;22.650;2023-12-20T10:06:17;28.05;;;6.53;;
72125;SDS011;59999;51.676;22.650;2023-12-20T10:08:42;9.90;;;3.20;;
72125;SDS011;59999;51.676;22.650;2023-12-20T10:11:09;13.60;;;3.95;;
72125;SDS011;59999;51.676;22.650;2023-12-20T10:13:36;21.17;;;5.57;;
72125;SDS011;59999;51.676;22.650;2023-12-20T10:16:06;34.22;;;7.60;;
72125;SDS011;59999;51.676;22.650;2023-12-20T10:18:32;46.80;;;9.90;;
72125;SDS011;59999;51.676;22.650;2023-12-20T10:20:58;20.42;;;5.00;;
72125;SDS011;59999;51.676;22.650;2023-12-20T10:23:25;27.20;;;6.60;;
72125;SDS011;59999;51.676;22.650;2023-12-20T10:26:00;23.67;;;4.50;;
72125;SDS011;59999;51.676;22.650;2023-12-20T10:28:26;32.20;;;6.90;;
72125;SDS011;59999;51.676;22.650;2023-12-20T10:30:55;35.03;;;7.65;;
72125;SDS011;59999;51.676;22.650;2023-12-20T10:33:24;32.33;;;7.30;;
72125;SDS011;59999;51.676;22.650;2023-12-20T10:36:00;32.92;;;6.82;;
72125;SDS011;59999;51.676;22.650;2023-12-20T10:38:26;30.97;;;7.40;;
72125;SDS011;59999;51.676;22.650;2023-12-20T10:40:56;31.60;;;6.85;;
72125;SDS011;59999;51.676;22.650;2023-12-20T10:43:24;27.92;;;6.97;;
72125;SDS011;59999;51.676;22.650;2023-12-20T10:45:52;61.03;;;20.10;;
72125;SDS011;59999;51.676;22.650;2023-12-20T10:48:17;49.60;;;13.60;;
72125;SDS011;59999;51.676;22.650;2023-12-20T10:50:44;23.10;;;5.88;;
72125;SDS011;59999;51.676;22.650;2023-12-20T10:53:09;28.63;;;7.63;;
72125;SDS011;59999;51.676;22.650;2023-12-20T10:55:37;33.42;;;6.85;;
72125;SDS011;59999;51.676;22.650;2023-12-20T10:58:09;33.33;;;7.77;;
72125;SDS011;59999;51.676;22.650;2023-12-20T11:00:39;34.25;;;8.15;;
72125;SDS011;59999;51.676;22.650;2023-12-20T11:03:09;42.75;;;12.07;;
72125;SDS011;59999;51.676;22.650;2023-12-20T11:08:07;43.47;;;14.05;;
72125;SDS011;59999;51.676;22.650;2023-12-20T11:13:20;36.33;;;9.32;;
72125;SDS011;59999;51.676;22.650;2023-12-20T11:15:49;44.60;;;14.35;;
72125;SDS011;59999;51.676;22.650;2023-12-20T11:18:15;130.27;;;31.00;;
72125;SDS011;59999;51.676;22.650;2023-12-20T11:20:41;128.20;;;36.03;;
72125;SDS011;59999;51.676;22.650;2023-12-20T11:23:08;44.30;;;12.75;;
72125;SDS011;59999;51.676;22.650;2023-12-20T11:25:47;52.25;;;16.77;;
72125;SDS011;59999;51.676;22.650;2023-12-20T11:28:14;47.53;;;17.58;;
72125;SDS011;59999;51.676;22.650;2023-12-20T11:30:47;18.00;;;5.65;;
72125;SDS011;59999;51.676;22.650;2023-12-20T11:33:15;20.13;;;5.80;;
72125;SDS011;59999;51.676;22.650;2023-12-20T11:35:42;16.08;;;4.68;;
72125;SDS011;59999;51.676;22.650;2023-12-20T11:38:09;42.38;;;13.55;;
72125;SDS011;59999;51.676;22.650;2023-12-20T11:40:36;37.42;;;10.05;;
72125;SDS011;59999;51.676;22.650;2023-12-20T11:43:02;20.73;;;5.00;;
72125;SDS011;59999;51.676;22.650;2023-12-20T11:45:28;20.43;;;5.20;;
72125;SDS011;59999;51.676;22.650;2023-12-20T11:47:54;21.02;;;5.32;;
72125;SDS011;59999;51.676;22.650;2023-12-20T11:50:23;15.63;;;5.07;;
72125;SDS011;59999;51.676;22.650;2023-12-20T11:52:49;24.58;;;6.90;;
72125;SDS011;59999;51.676;22.650;2023-12-20T11:55:17;28.95;;;9.32;;
72125;SDS011;59999;51.676;22.650;2023-12-20T11:57:43;19.60;;;4.50;;
72125;SDS011;59999;51.676;22.650;2023-12-20T12:00:10;11.57;;;3.15;;
72125;SDS011;59999;51.676;22.650;2023-12-20T12:02:36;15.43;;;4.20;;
72125;SDS011;59999;51.676;22.650;2023-12-20T12:05:02;14.30;;;3.55;;
72125;SDS011;59999;51.676;22.650;2023-12-20T12:07:31;15.30;;;3.90;;
72125;SDS011;59999;51.676;22.650;2023-12-20T12:09:57;23.13;;;7.57;;
72125;SDS011;59999;51.676;22.650;2023-12-20T12:12:23;9.70;;;2.30;;
72125;SDS011;59999;51.676;22.650;2023-12-20T12:14:51;16.27;;;3.83;;
72125;SDS011;59999;51.676;22.650;2023-12-20T12:17:16;15.82;;;4.50;;
72125;SDS011;59999;51.676;22.650;2023-12-20T12:19:42;7.30;;;1.60;;
72125;SDS011;59999;51.676;22.650;2023-12-20T12:22:13;9.52;;;1.98;;
72125;SDS011;59999;51.676;22.650;2023-12-20T12:24:41;8.75;;;2.38;;
72125;SDS011;59999;51.676;22.650;2023-12-20T12:27:10;6.97;;;2.03;;
72125;SDS011;59999;51.676;22.650;2023-12-20T12:29:38;6.28;;;1.48;;
72125;SDS011;59999;51.676;22.650;2023-12-20T12:32:04;8.03;;;2.07;;
72125;SDS011;59999;51.676;22.650;2023-12-20T12:34:32;13.27;;;3.88;;
72125;SDS011;59999;51.676;22.650;2023-12-20T12:36:59;13.27;;;5.50;;
72125;SDS011;59999;51.676;22.650;2023-12-20T12:39:25;12.60;;;4.68;;
72125;SDS011;59999;51.676;22.650;2023-12-20T12:41:51;10.10;;;3.50;;
72125;SDS011;59999;51.676;22.650;2023-12-20T12:44:18;9.25;;;2.67;;
72125;SDS011;59999;51.676;22.650;2023-12-20T12:46:44;11.57;;;4.13;;
72125;SDS011;59999;51.676;22.650;2023-12-20T12:49:11;20.63;;;6.47;;
72125;SDS011;59999;51.676;22.650;2023-12-20T12:51:37;33.42;;;12.30;;
72125;SDS011;59999;51.676;22.650;2023-12-20T12:54:03;18.80;;;7.13;;
72125;SDS011;59999;51.676;22.650;2023-12-20T12:56:29;13.40;;;4.13;;
72125;SDS011;59999;51.676;22.650;2023-12-20T12:58:54;9.10;;;2.88;;
72125;SDS011;59999;51.676;22.650;2023-12-20T13:01:20;8.60;;;3.03;;
72125;SDS011;59999;51.676;22.650;2023-12-20T13:03:46;10.17;;;2.67;;
72125;SDS011;59999;51.676;22.650;2023-12-20T13:06:12;8.43;;;2.65;;
72125;SDS011;59999;51.676;22.650;2023-12-20T13:08:38;8.60;;;3.10;;
72125;SDS011;59999;51.676;22.650;2023-12-20T13:11:04;11.33;;;4.57;;
72125;SDS011;59999;51.676;22.650;2023-12-20T13:13:30;16.90;;;5.07;;
72125;SDS011;59999;51.676;22.650;2023-12-20T13:15:56;11.02;;;2.97;;
72125;SDS011;59999;51.676;22.650;2023-12-20T13:18:22;13.98;;;3.42;;
72125;SDS011;59999;51.676;22.650;2023-12-20T13:20:49;15.97;;;5.07;;
72125;SDS011;59999;51.676;22.650;2023-12-20T13:23:15;15.85;;;5.15;;
72125;SDS011;59999;51.676;22.650;2023-12-20T13:25:43;15.43;;;4.82;;
72125;SDS011;59999;51.676;22.650;2023-12-20T13:28:13;12.73;;;3.40;;
72125;SDS011;59999;51.676;22.650;2023-12-20T13:30:39;14.95;;;3.78;;
72125;SDS011;59999;51.676;22.650;2023-12-20T13:33:05;26.27;;;7.40;;
72125;SDS011;59999;51.676;22.650;2023-12-20T13:35:31;27.35;;;7.90;;
72125;SDS011;59999;51.676;22.650;2023-12-20T13:37:58;19.23;;;5.32;;
72125;SDS011;59999;51.676;22.650;2023-12-20T13:40:24;12.90;;;2.97;;
72125;SDS011;59999;51.676;22.650;2023-12-20T13:42:50;18.15;;;3.95;;
72125;SDS011;59999;51.676;22.650;2023-12-20T13:45:16;12.48;;;3.08;;
72125;SDS011;59999;51.676;22.650;2023-12-20T13:47:42;12.87;;;3.63;;
72125;SDS011;59999;51.676;22.650;2023-12-20T13:50:07;10.77;;;2.90;;
72125;SDS011;59999;51.676;22.650;2023-12-20T13:52:33;16.77;;;3.40;;
72125;SDS011;59999;51.676;22.650;2023-12-20T13:54:59;19.63;;;6.65;;
72125;SDS011;59999;51.676;22.650;2023-12-20T13:57:25;12.27;;;3.85;;
72125;SDS011;59999;51.676;22.650;2023-12-20T13:59:50;19.93;;;8.30;;
72125;SDS011;59999;51.676;22.650;2023-12-20T14:02:17;15.27;;;4.88;;
72125;SDS011;59999;51.676;22.650;2023-12-20T14:04:42;23.67;;;7.60;;
72125;SDS011;59999;51.676;22.650;2023-12-20T14:07:08;23.13;;;6.40;;
72125;SDS011;59999;51.676;22.650;2023-12-20T14:09:35;24.85;;;8.10;;
72125;SDS011;59999;51.676;22.650;2023-12-20T14:12:01;22.67;;;7.50;;
72125;SDS011;59999;51.676;22.650;2023-12-20T14:14:27;13.45;;;4.78;;
72125;SDS011;59999;51.676;22.650;2023-12-20T14:16:53;26.33;;;7.18;;
72125;SDS011;59999;51.676;22.650;2023-12-20T14:19:18;21.38;;;5.75;;
72125;SDS011;59999;51.676;22.650;2023-12-20T14:21:44;10.25;;;3.20;;